Airfield :
LOGIN :

Register | Disclaimer

   EN    FR    IT 

 










Legend :    VFR   Marginal VFR   IFR   Intensive IFR   Very Intensive IFR
Visi :
Ceiling :
>= 8 km
>= 3000ft
5 to 8 km
1000 to 3000 ft
1500m to 5 km
500 to 1000 ft
800 to 1500m
200 to 500 ft
< 800m
< 200 ft
Symbols :   Thunderstorms  Fog  Heavy snow  Heavy precipitations  Wind > 20 kt
SIGMETs :     Misc.  Thunderstorms  Icing  Turbulence  Mountain Waves  Volcanic Ashes






- Airport Elevation : 256 ft
- IATA code : KUN


EYKA - Kaunas

CURRENT METAR :
  • 202150Z 17005KT CAVOK 01/M02 Q1017 R08/290195

EXPIRED METARs :
  • 202120Z 18004KT 150V210 CAVOK 00/M02 Q1018 R08/290195
  • 202050Z 18003KT 150V210 CAVOK 01/M02 Q1018 R08/290195
  • 202020Z 17004KT 150V210 CAVOK 01/M02 Q1018 R08/290195
  • 201950Z 17003KT 120V210 CAVOK 01/M01 Q1018 R08/290195
  • 201920Z VRB02KT 6000 NSC 01/M01 Q1018 R08/290195

TAF TAF EYKA
Valid from the 20 at 18:00 until the 21 at 18:00 UTC


201700Z 2018/2118 VRB03KT 9000 BKN020
TEMPO 2020/2106 3000 BR BKN005
BECMG 2106/2107 18014G24KT OVC010
TEMPO 2108/2118 5000 RA BR BKN005



MET'MAP, your aeronautical weather chart ! - Copyright ORBIFLY December 2007 - Disclaimer

ORBIFLY MET'MAP TEAM :

Programming & Development : Alexandra Zaïnal
Concept & original design : Baudouin d'Aumeries
Assistance for programming : Marc-Olivier Méhu
Technical & hardware support : Manuel Goepfert

Contact : metmap@orbifly.com




SOURCES & CREDITS :

   NOAA